sensor_id;sensor_type;location;lat;lon;timestamp;P1;durP1;ratioP1;P2;durP2;ratioP2
30458;SDS011;17254;50.976;7.034;2022-10-16T00:00:03;5.85;;;3.72;;
30458;SDS011;17254;50.976;7.034;2022-10-16T00:00:20;8.07;;;4.00;;
30458;SDS011;17254;50.976;7.034;2022-10-16T00:00:36;8.33;;;3.87;;
30458;SDS011;17254;50.976;7.034;2022-10-16T00:00:54;6.97;;;3.88;;
30458;SDS011;17254;50.976;7.034;2022-10-16T00:01:11;10.23;;;4.00;;
30458;SDS011;17254;50.976;7.034;2022-10-16T00:01:29;9.50;;;3.72;;
30458;SDS011;17254;50.976;7.034;2022-10-16T00:01:46;10.88;;;4.00;;
30458;SDS011;17254;50.976;7.034;2022-10-16T00:02:02;13.73;;;3.83;;
30458;SDS011;17254;50.976;7.034;2022-10-16T00:02:18;11.30;;;3.87;;
30458;SDS011;17254;50.976;7.034;2022-10-16T00:02:34;7.75;;;3.83;;
30458;SDS011;17254;50.976;7.034;2022-10-16T00:02:50;7.13;;;4.40;;
30458;SDS011;17254;50.976;7.034;2022-10-16T00:03:06;8.18;;;4.88;;
30458;SDS011;17254;50.976;7.034;2022-10-16T00:03:23;9.88;;;4.55;;
30458;SDS011;17254;50.976;7.034;2022-10-16T00:03:40;11.15;;;4.43;;
30458;SDS011;17254;50.976;7.034;2022-10-16T00:03:59;6.75;;;4.10;;
30458;SDS011;17254;50.976;7.034;2022-10-16T00:04:15;6.38;;;3.80;;
30458;SDS011;17254;50.976;7.034;2022-10-16T00:04:33;10.48;;;4.18;;
30458;SDS011;17254;50.976;7.034;2022-10-16T00:04:49;12.43;;;4.13;;
30458;SDS011;17254;50.976;7.034;2022-10-16T00:05:06;8.50;;;3.85;;
30458;SDS011;17254;50.976;7.034;2022-10-16T00:05:22;8.60;;;4.18;;
30458;SDS011;17254;50.976;7.034;2022-10-16T00:05:38;9.10;;;4.00;;
30458;SDS011;17254;50.976;7.034;2022-10-16T00:05:58;6.63;;;3.80;;
30458;SDS011;17254;50.976;7.034;2022-10-16T00:06:15;6.88;;;3.88;;
30458;SDS011;17254;50.976;7.034;2022-10-16T00:06:33;8.93;;;3.72;;
30458;SDS011;17254;50.976;7.034;2022-10-16T00:06:49;8.60;;;3.95;;
30458;SDS011;17254;50.976;7.034;2022-10-16T00:07:05;8.35;;;3.90;;
30458;SDS011;17254;50.976;7.034;2022-10-16T00:07:21;7.10;;;3.50;;
30458;SDS011;17254;50.976;7.034;2022-10-16T00:07:37;7.32;;;3.40;;
30458;SDS011;17254;50.976;7.034;2022-10-16T00:07:53;7.80;;;3.40;;
30458;SDS011;17254;50.976;7.034;2022-10-16T00:08:10;6.25;;;3.65;;
30458;SDS011;17254;50.976;7.034;2022-10-16T00:08:27;7.10;;;3.47;;
30458;SDS011;17254;50.976;7.034;2022-10-16T00:08:44;8.00;;;3.50;;
30458;SDS011;17254;50.976;7.034;2022-10-16T00:09:00;6.85;;;3.80;;
30458;SDS011;17254;50.976;7.034;2022-10-16T00:09:17;9.02;;;3.72;;
30458;SDS011;17254;50.976;7.034;2022-10-16T00:09:34;11.07;;;3.40;;
30458;SDS011;17254;50.976;7.034;2022-10-16T00:09:50;9.13;;;3.40;;
30458;SDS011;17254;50.976;7.034;2022-10-16T00:10:06;9.35;;;3.75;;
30458;SDS011;17254;50.976;7.034;2022-10-16T00:10:22;10.18;;;3.85;;
30458;SDS011;17254;50.976;7.034;2022-10-16T00:10:39;5.25;;;3.22;;
30458;SDS011;17254;50.976;7.034;2022-10-16T00:10:59;5.37;;;2.97;;
30458;SDS011;17254;50.976;7.034;2022-10-16T00:11:17;9.75;;;3.65;;
30458;SDS011;17254;50.976;7.034;2022-10-16T00:11:34;9.38;;;3.40;;
30458;SDS011;17254;50.976;7.034;2022-10-16T00:11:52;8.93;;;3.22;;
30458;SDS011;17254;50.976;7.034;2022-10-16T00:12:09;10.77;;;3.75;;
30458;SDS011;17254;50.976;7.034;2022-10-16T00:12:25;8.45;;;3.50;;
30458;SDS011;17254;50.976;7.034;2022-10-16T00:12:41;7.32;;;3.03;;
30458;SDS011;17254;50.976;7.034;2022-10-16T00:12:57;9.13;;;2.97;;
30458;SDS011;17254;50.976;7.034;2022-10-16T00:13:13;6.70;;;2.93;;
30458;SDS011;17254;50.976;7.034;2022-10-16T00:13:29;6.88;;;2.90;;
30458;SDS011;17254;50.976;7.034;2022-10-16T00:13:46;8.93;;;2.90;;
30458;SDS011;17254;50.976;7.034;2022-10-16T00:14:03;7.20;;;2.90;;
30458;SDS011;17254;50.976;7.034;2022-10-16T00:14:21;8.95;;;3.00;;
30458;SDS011;17254;50.976;7.034;2022-10-16T00:14:37;7.82;;;3.10;;
30458;SDS011;17254;50.976;7.034;2022-10-16T00:14:55;5.72;;;2.90;;
30458;SDS011;17254;50.976;7.034;2022-10-16T00:15:11;5.13;;;2.70;;
30458;SDS011;17254;50.976;7.034;2022-10-16T00:15:29;6.53;;;3.05;;
30458;SDS011;17254;50.976;7.034;2022-10-16T00:15:45;6.75;;;3.22;;
30458;SDS011;17254;50.976;7.034;2022-10-16T00:16:01;5.80;;;3.00;;
30458;SDS011;17254;50.976;7.034;2022-10-16T00:16:18;5.53;;;2.88;;
30458;SDS011;17254;50.976;7.034;2022-10-16T00:16:35;7.63;;;3.13;;
30458;SDS011;17254;50.976;7.034;2022-10-16T00:16:51;8.00;;;3.33;;
30458;SDS011;17254;50.976;7.034;2022-10-16T00:17:07;5.40;;;3.22;;
30458;SDS011;17254;50.976;7.034;2022-10-16T00:17:23;3.95;;;2.92;;
30458;SDS011;17254;50.976;7.034;2022-10-16T00:17:40;4.35;;;2.78;;
30458;SDS011;17254;50.976;7.034;2022-10-16T00:39:25;5.00;;;2.55;;
30458;SDS011;17254;50.976;7.034;2022-10-16T00:39:41;5.32;;;2.65;;
30458;SDS011;17254;50.976;7.034;2022-10-16T00:39:57;4.68;;;2.55;;
30458;SDS011;17254;50.976;7.034;2022-10-16T00:40:13;4.82;;;2.30;;
30458;SDS011;17254;50.976;7.034;2022-10-16T00:40:29;5.55;;;2.38;;
30458;SDS011;17254;50.976;7.034;2022-10-16T00:40:45;4.77;;;2.60;;
30458;SDS011;17254;50.976;7.034;2022-10-16T00:41:01;6.40;;;2.92;;
30458;SDS011;17254;50.976;7.034;2022-10-16T00:41:17;6.13;;;2.95;;
30458;SDS011;17254;50.976;7.034;2022-10-16T00:41:33;4.15;;;2.78;;
30458;SDS011;17254;50.976;7.034;2022-10-16T00:41:49;6.03;;;2.80;;
30458;SDS011;17254;50.976;7.034;2022-10-16T00:42:05;5.47;;;2.55;;
30458;SDS011;17254;50.976;7.034;2022-10-16T00:42:22;3.80;;;2.60;;
30458;SDS011;17254;50.976;7.034;2022-10-16T00:42:38;7.18;;;3.17;;
30458;SDS011;17254;50.976;7.034;2022-10-16T00:42:55;7.25;;;3.08;;
30458;SDS011;17254;50.976;7.034;2022-10-16T00:43:12;6.97;;;2.88;;
30458;SDS011;17254;50.976;7.034;2022-10-16T00:43:34;7.15;;;2.90;;
30458;SDS011;17254;50.976;7.034;2022-10-16T00:43:53;7.40;;;2.97;;
30458;SDS011;17254;50.976;7.034;2022-10-16T00:44:58;5.75;;;2.97;;
30458;SDS011;17254;50.976;7.034;2022-10-16T00:45:14;7.18;;;2.67;;
30458;SDS011;17254;50.976;7.034;2022-10-16T00:45:31;5.78;;;2.95;;
30458;SDS011;17254;50.976;7.034;2022-10-16T00:45:47;6.75;;;2.90;;
30458;SDS011;17254;50.976;7.034;2022-10-16T00:46:04;7.35;;;2.80;;
30458;SDS011;17254;50.976;7.034;2022-10-16T00:46:26;3.72;;;2.50;;
30458;SDS011;17254;50.976;7.034;2022-10-16T00:46:44;3.80;;;3.00;;
30458;SDS011;17254;50.976;7.034;2022-10-16T00:47:01;5.22;;;3.03;;
30458;SDS011;17254;50.976;7.034;2022-10-16T00:47:19;6.25;;;3.10;;
30458;SDS011;17254;50.976;7.034;2022-10-16T00:47:39;5.30;;;2.85;;
30458;SDS011;17254;50.976;7.034;2022-10-16T00:47:57;5.18;;;2.88;;
30458;SDS011;17254;50.976;7.034;2022-10-16T00:48:14;4.68;;;2.72;;
30458;SDS011;17254;50.976;7.034;2022-10-16T00:48:37;6.78;;;2.85;;
30458;SDS011;17254;50.976;7.034;2022-10-16T00:48:55;7.38;;;2.70;;
30458;SDS011;17254;50.976;7.034;2022-10-16T00:49:16;4.15;;;2.80;;
30458;SDS011;17254;50.976;7.034;2022-10-16T00:49:33;6.95;;;3.10;;
30458;SDS011;17254;50.976;7.034;2022-10-16T00:49:51;6.35;;;3.15;;
30458;SDS011;17254;50.976;7.034;2022-10-16T00:50:16;4.80;;;2.80;;
30458;SDS011;17254;50.976;7.034;2022-10-16T00:50:37;4.93;;;2.40;;
30458;SDS011;17254;50.976;7.034;2022-10-16T00:50:54;8.77;;;3.10;;
30458;SDS011;17254;50.976;7.034;2022-10-16T00:51:11;8.00;;;3.50;;
30458;SDS011;17254;50.976;7.034;2022-10-16T00:51:28;5.43;;;3.20;;
30458;SDS011;17254;50.976;7.034;2022-10-16T00:51:49;12.52;;;3.45;;
30458;SDS011;17254;50.976;7.034;2022-10-16T00:52:07;4.82;;;3.33;;
30458;SDS011;17254;50.976;7.034;2022-10-16T00:52:23;6.75;;;3.40;;
30458;SDS011;17254;50.976;7.034;2022-10-16T00:52:41;7.20;;;3.50;;
30458;SDS011;17254;50.976;7.034;2022-10-16T00:53:00;5.20;;;3.50;;
30458;SDS011;17254;50.976;7.034;2022-10-16T00:53:17;5.70;;;3.50;;
30458;SDS011;17254;50.976;7.034;2022-10-16T00:53:34;4.68;;;3.08;;
30458;SDS011;17254;50.976;7.034;2022-10-16T00:53:51;6.45;;;3.00;;
30458;SDS011;17254;50.976;7.034;2022-10-16T00:54:08;6.35;;;2.95;;
30458;SDS011;17254;50.976;7.034;2022-10-16T00:54:28;5.35;;;2.92;;
30458;SDS011;17254;50.976;7.034;2022-10-16T00:54:46;5.28;;;2.85;;
30458;SDS011;17254;50.976;7.034;2022-10-16T00:55:04;6.13;;;3.10;;
30458;SDS011;17254;50.976;7.034;2022-10-16T00:55:21;6.47;;;3.15;;
30458;SDS011;17254;50.976;7.034;2022-10-16T00:55:37;12.05;;;3.45;;
30458;SDS011;17254;50.976;7.034;2022-10-16T00:55:53;10.80;;;3.65;;
30458;SDS011;17254;50.976;7.034;2022-10-16T00:56:09;5.27;;;3.73;;
30458;SDS011;17254;50.976;7.034;2022-10-16T00:56:26;6.35;;;3.50;;
30458;SDS011;17254;50.976;7.034;2022-10-16T00:56:43;7.32;;;3.30;;
30458;SDS011;17254;50.976;7.034;2022-10-16T00:57:01;6.05;;;3.33;;
30458;SDS011;17254;50.976;7.034;2022-10-16T00:57:19;4.53;;;3.45;;
30458;SDS011;17254;50.976;7.034;2022-10-16T00:57:35;6.30;;;3.50;;
30458;SDS011;17254;50.976;7.034;2022-10-16T00:57:53;8.93;;;3.90;;
30458;SDS011;17254;50.976;7.034;2022-10-16T00:58:10;10.07;;;4.32;;
30458;SDS011;17254;50.976;7.034;2022-10-16T00:58:27;7.32;;;3.97;;
30458;SDS011;17254;50.976;7.034;2022-10-16T00:58:43;5.53;;;3.50;;
30458;SDS011;17254;50.976;7.034;2022-10-16T00:58:59;6.68;;;4.28;;
30458;SDS011;17254;50.976;7.034;2022-10-16T00:59:20;7.93;;;3.97;;
30458;SDS011;17254;50.976;7.034;2022-10-16T00:59:40;6.70;;;4.32;;
30458;SDS011;17254;50.976;7.034;2022-10-16T00:59:57;9.23;;;4.00;;
30458;SDS011;17254;50.976;7.034;2022-10-16T01:00:14;10.05;;;3.85;;
30458;SDS011;17254;50.976;7.034;2022-10-16T01:00:33;6.18;;;4.00;;
30458;SDS011;17254;50.976;7.034;2022-10-16T01:00:48;9.00;;;3.92;;
30458;SDS011;17254;50.976;7.034;2022-10-16T01:01:05;7.28;;;3.78;;
30458;SDS011;17254;50.976;7.034;2022-10-16T01:01:22;5.63;;;3.92;;
30458;SDS011;17254;50.976;7.034;2022-10-16T01:01:37;6.37;;;3.90;;
30458;SDS011;17254;50.976;7.034;2022-10-16T01:01:54;6.80;;;3.97;;
30458;SDS011;17254;50.976;7.034;2022-10-16T01:02:11;8.43;;;4.32;;
30458;SDS011;17254;50.976;7.034;2022-10-16T01:02:29;9.27;;;4.60;;
30458;SDS011;17254;50.976;7.034;2022-10-16T01:02:51;7.65;;;4.43;;
30458;SDS011;17254;50.976;7.034;2022-10-16T01:03:21;9.15;;;4.88;;
30458;SDS011;17254;50.976;7.034;2022-10-16T01:03:39;12.00;;;4.57;;
30458;SDS011;17254;50.976;7.034;2022-10-16T01:03:55;9.20;;;4.30;;
30458;SDS011;17254;50.976;7.034;2022-10-16T01:04:11;7.18;;;3.95;;
30458;SDS011;17254;50.976;7.034;2022-10-16T01:04:29;6.75;;;4.35;;
30458;SDS011;17254;50.976;7.034;2022-10-16T01:04:50;9.77;;;4.60;;
30458;SDS011;17254;50.976;7.034;2022-10-16T01:05:08;8.35;;;4.53;;
30458;SDS011;17254;50.976;7.034;2022-10-16T01:05:25;10.57;;;5.13;;
30458;SDS011;17254;50.976;7.034;2022-10-16T01:05:52;9.05;;;4.82;;
30458;SDS011;17254;50.976;7.034;2022-10-16T01:06:20;10.55;;;5.72;;
30458;SDS011;17254;50.976;7.034;2022-10-16T01:06:40;8.38;;;4.53;;
30458;SDS011;17254;50.976;7.034;2022-10-16T01:07:04;10.88;;;4.97;;
30458;SDS011;17254;50.976;7.034;2022-10-16T01:07:30;10.70;;;5.55;;
30458;SDS011;17254;50.976;7.034;2022-10-16T01:07:55;7.50;;;5.10;;
30458;SDS011;17254;50.976;7.034;2022-10-16T01:08:17;8.43;;;5.10;;
30458;SDS011;17254;50.976;7.034;2022-10-16T01:08:39;9.18;;;5.07;;
30458;SDS011;17254;50.976;7.034;2022-10-16T01:09:08;14.00;;;5.20;;
30458;SDS011;17254;50.976;7.034;2022-10-16T01:09:30;11.40;;;5.13;;
30458;SDS011;17254;50.976;7.034;2022-10-16T01:09:57;8.65;;;4.90;;
30458;SDS011;17254;50.976;7.034;2022-10-16T01:10:25;8.13;;;5.13;;
30458;SDS011;17254;50.976;7.034;2022-10-16T01:10:48;7.72;;;5.28;;
30458;SDS011;17254;50.976;7.034;2022-10-16T01:11:15;10.90;;;4.97;;
30458;SDS011;17254;50.976;7.034;2022-10-16T01:11:37;8.55;;;4.63;;
30458;SDS011;17254;50.976;7.034;2022-10-16T01:12:00;9.48;;;5.15;;
30458;SDS011;17254;50.976;7.034;2022-10-16T01:12:22;13.93;;;5.75;;
30458;SDS011;17254;50.976;7.034;2022-10-16T01:12:47;9.57;;;5.03;;
30458;SDS011;17254;50.976;7.034;2022-10-16T01:13:06;13.63;;;4.72;;
30458;SDS011;17254;50.976;7.034;2022-10-16T01:13:25;11.70;;;5.00;;
30458;SDS011;17254;50.976;7.034;2022-10-16T01:13:47;7.63;;;4.43;;
30458;SDS011;17254;50.976;7.034;2022-10-16T01:14:10;8.35;;;4.50;;
30458;SDS011;17254;50.976;7.034;2022-10-16T01:14:38;12.25;;;4.93;;
30458;SDS011;17254;50.976;7.034;2022-10-16T01:15:02;7.78;;;4.40;;
30458;SDS011;17254;50.976;7.034;2022-10-16T01:15:26;8.13;;;4.85;;
30458;SDS011;17254;50.976;7.034;2022-10-16T01:15:47;6.50;;;4.75;;
30458;SDS011;17254;50.976;7.034;2022-10-16T01:16:09;9.32;;;5.10;;
30458;SDS011;17254;50.976;7.034;2022-10-16T01:16:33;10.35;;;5.53;;
30458;SDS011;17254;50.976;7.034;2022-10-16T01:16:55;14.52;;;5.30;;
30458;SDS011;17254;50.976;7.034;2022-10-16T01:17:16;9.38;;;4.93;;
30458;SDS011;17254;50.976;7.034;2022-10-16T01:17:37;9.48;;;4.82;;
30458;SDS011;17254;50.976;7.034;2022-10-16T01:17:59;12.73;;;4.90;;
30458;SDS011;17254;50.976;7.034;2022-10-16T01:18:21;9.45;;;4.90;;
30458;SDS011;17254;50.976;7.034;2022-10-16T01:18:44;7.63;;;4.40;;
30458;SDS011;17254;50.976;7.034;2022-10-16T01:19:05;6.40;;;4.65;;
30458;SDS011;17254;50.976;7.034;2022-10-16T01:19:34;6.78;;;4.45;;
30458;SDS011;17254;50.976;7.034;2022-10-16T01:20:05;9.88;;;4.57;;
30458;SDS011;17254;50.976;7.034;2022-10-16T01:20:26;9.32;;;4.47;;
30458;SDS011;17254;50.976;7.034;2022-10-16T01:20:47;6.22;;;3.80;;
30458;SDS011;17254;50.976;7.034;2022-10-16T01:21:10;10.70;;;4.50;;
30458;SDS011;17254;50.976;7.034;2022-10-16T01:21:31;7.07;;;3.85;;
30458;SDS011;17254;50.976;7.034;2022-10-16T01:21:50;5.10;;;3.88;;
30458;SDS011;17254;50.976;7.034;2022-10-16T01:22:08;7.65;;;3.97;;
30458;SDS011;17254;50.976;7.034;2022-10-16T01:22:25;8.27;;;3.88;;
30458;SDS011;17254;50.976;7.034;2022-10-16T01:22:58;8.93;;;4.15;;
30458;SDS011;17254;50.976;7.034;2022-10-16T01:23:23;6.18;;;4.32;;
30458;SDS011;17254;50.976;7.034;2022-10-16T01:23:48;6.43;;;3.90;;
30458;SDS011;17254;50.976;7.034;2022-10-16T01:24:15;6.57;;;3.90;;
30458;SDS011;17254;50.976;7.034;2022-10-16T01:24:43;9.75;;;4.43;;
30458;SDS011;17254;50.976;7.034;2022-10-16T01:25:01;10.02;;;4.07;;
30458;SDS011;17254;50.976;7.034;2022-10-16T01:25:25;6.65;;;3.83;;
30458;SDS011;17254;50.976;7.034;2022-10-16T01:27:24;6.65;;;3.33;;
30458;SDS011;17254;50.976;7.034;2022-10-16T01:27:42;6.30;;;3.63;;
30458;SDS011;17254;50.976;7.034;2022-10-16T01:28:03;8.60;;;3.75;;
30458;SDS011;17254;50.976;7.034;2022-10-16T01:28:24;9.30;;;4.10;;
30458;SDS011;17254;50.976;7.034;2022-10-16T01:28:45;8.77;;;3.95;;
30458;SDS011;17254;50.976;7.034;2022-10-16T01:29:07;8.07;;;3.92;;
30458;SDS011;17254;50.976;7.034;2022-10-16T01:29:32;8.75;;;3.97;;
30458;SDS011;17254;50.976;7.034;2022-10-16T01:29:54;7.43;;;3.53;;
30458;SDS011;17254;50.976;7.034;2022-10-16T01:30:17;9.07;;;3.90;;
30458;SDS011;17254;50.976;7.034;2022-10-16T01:30:37;8.30;;;4.13;;
30458;SDS011;17254;50.976;7.034;2022-10-16T01:30:57;5.88;;;3.88;;
30458;SDS011;17254;50.976;7.034;2022-10-16T01:31:14;7.65;;;3.83;;
30458;SDS011;17254;50.976;7.034;2022-10-16T01:31:36;8.07;;;3.53;;
30458;SDS011;17254;50.976;7.034;2022-10-16T01:31:56;6.00;;;3.50;;
30458;SDS011;17254;50.976;7.034;2022-10-16T01:32:17;7.75;;;3.60;;
30458;SDS011;17254;50.976;7.034;2022-10-16T01:32:37;7.60;;;3.75;;
30458;SDS011;17254;50.976;7.034;2022-10-16T01:32:57;8.52;;;4.05;;
30458;SDS011;17254;50.976;7.034;2022-10-16T01:33:18;10.63;;;3.72;;
30458;SDS011;17254;50.976;7.034;2022-10-16T01:33:38;9.75;;;3.95;;
30458;SDS011;17254;50.976;7.034;2022-10-16T01:33:58;7.93;;;4.20;;
30458;SDS011;17254;50.976;7.034;2022-10-16T01:34:19;6.22;;;3.92;;
30458;SDS011;17254;50.976;7.034;2022-10-16T01:34:41;10.70;;;3.80;;
30458;SDS011;17254;50.976;7.034;2022-10-16T01:35:03;10.70;;;3.60;;
30458;SDS011;17254;50.976;7.034;2022-10-16T01:35:27;11.60;;;3.92;;
30458;SDS011;17254;50.976;7.034;2022-10-16T01:35:47;7.32;;;3.80;;
30458;SDS011;17254;50.976;7.034;2022-10-16T01:36:07;5.88;;;3.55;;
30458;SDS011;17254;50.976;7.034;2022-10-16T01:36:28;5.78;;;3.85;;
30458;SDS011;17254;50.976;7.034;2022-10-16T01:36:51;7.40;;;4.18;;
30458;SDS011;17254;50.976;7.034;2022-10-16T01:37:12;6.07;;;3.47;;
30458;SDS011;17254;50.976;7.034;2022-10-16T01:37:32;8.40;;;3.72;;
30458;SDS011;17254;50.976;7.034;2022-10-16T01:37:53;7.30;;;3.60;;
30458;SDS011;17254;50.976;7.034;2022-10-16T01:38:14;5.65;;;3.75;;
30458;SDS011;17254;50.976;7.034;2022-10-16T01:38:34;7.55;;;3.97;;
30458;SDS011;17254;50.976;7.034;2022-10-16T01:38:54;9.97;;;4.03;;
30458;SDS011;17254;50.976;7.034;2022-10-16T01:39:15;5.93;;;3.60;;
30458;SDS011;17254;50.976;7.034;2022-10-16T01:39:37;6.00;;;3.65;;
30458;SDS011;17254;50.976;7.034;2022-10-16T01:39:57;5.43;;;3.90;;
30458;SDS011;17254;50.976;7.034;2022-10-16T01:40:16;4.50;;;3.63;;
30458;SDS011;17254;50.976;7.034;2022-10-16T01:40:36;8.05;;;4.07;;
30458;SDS011;17254;50.976;7.034;2022-10-16T01:40:57;7.88;;;4.18;;
30458;SDS011;17254;50.976;7.034;2022-10-16T01:41:17;15.38;;;4.90;;
30458;SDS011;17254;50.976;7.034;2022-10-16T01:41:41;6.75;;;3.97;;
30458;SDS011;17254;50.976;7.034;2022-10-16T01:42:02;6.00;;;3.70;;
30458;SDS011;17254;50.976;7.034;2022-10-16T01:42:24;9.13;;;4.03;;
30458;SDS011;17254;50.976;7.034;2022-10-16T01:42:44;7.95;;;4.22;;
30458;SDS011;17254;50.976;7.034;2022-10-16T01:43:04;6.22;;;3.83;;
30458;SDS011;17254;50.976;7.034;2022-10-16T01:43:24;7.88;;;3.90;;
30458;SDS011;17254;50.976;7.034;2022-10-16T01:43:43;7.88;;;3.75;;
30458;SDS011;17254;50.976;7.034;2022-10-16T01:44:04;6.72;;;3.70;;
30458;SDS011;17254;50.976;7.034;2022-10-16T01:44:22;7.78;;;3.83;;
30458;SDS011;17254;50.976;7.034;2022-10-16T01:44:41;6.88;;;4.30;;
30458;SDS011;17254;50.976;7.034;2022-10-16T01:45:01;10.88;;;4.00;;
30458;SDS011;17254;50.976;7.034;2022-10-16T01:45:21;8.60;;;3.60;;
30458;SDS011;17254;50.976;7.034;2022-10-16T01:45:38;10.25;;;3.90;;
30458;SDS011;17254;50.976;7.034;2022-10-16T01:45:56;8.23;;;3.78;;
30458;SDS011;17254;50.976;7.034;2022-10-16T01:46:14;5.35;;;3.40;;
30458;SDS011;17254;50.976;7.034;2022-10-16T01:46:34;7.15;;;3.80;;
30458;SDS011;17254;50.976;7.034;2022-10-16T01:46:53;7.65;;;3.80;;
30458;SDS011;17254;50.976;7.034;2022-10-16T01:47:10;9.15;;;3.80;;
30458;SDS011;17254;50.976;7.034;2022-10-16T01:47:28;7.68;;;3.80;;
30458;SDS011;17254;50.976;7.034;2022-10-16T01:47:47;5.57;;;3.60;;
30458;SDS011;17254;50.976;7.034;2022-10-16T01:48:06;6.75;;;4.03;;
30458;SDS011;17254;50.976;7.034;2022-10-16T01:48:25;7.00;;;3.78;;
30458;SDS011;17254;50.976;7.034;2022-10-16T01:48:41;6.40;;;3.33;;
30458;SDS011;17254;50.976;7.034;2022-10-16T01:48:57;6.32;;;3.60;;
30458;SDS011;17254;50.976;7.034;2022-10-16T01:49:15;6.45;;;3.55;;
30458;SDS011;17254;50.976;7.034;2022-10-16T01:49:33;6.80;;;3.88;;
30458;SDS011;17254;50.976;7.034;2022-10-16T01:49:50;7.30;;;3.80;;
30458;SDS011;17254;50.976;7.034;2022-10-16T01:50:08;8.07;;;3.78;;
30458;SDS011;17254;50.976;7.034;2022-10-16T01:50:24;8.38;;;4.05;;
30458;SDS011;17254;50.976;7.034;2022-10-16T01:50:44;8.80;;;4.07;;
30458;SDS011;17254;50.976;7.034;2022-10-16T01:51:15;6.97;;;3.83;;
30458;SDS011;17254;50.976;7.034;2022-10-16T01:51:33;6.07;;;3.92;;
30458;SDS011;17254;50.976;7.034;2022-10-16T01:51:51;6.70;;;3.70;;
30458;SDS011;17254;50.976;7.034;2022-10-16T01:52:12;6.90;;;3.55;;
30458;SDS011;17254;50.976;7.034;2022-10-16T01:52:34;8.23;;;3.75;;
30458;SDS011;17254;50.976;7.034;2022-10-16T01:52:53;8.07;;;4.00;;
30458;SDS011;17254;50.976;7.034;2022-10-16T01:53:12;6.25;;;3.78;;
30458;SDS011;17254;50.976;7.034;2022-10-16T01:53:29;6.80;;;3.75;;
30458;SDS011;17254;50.976;7.034;2022-10-16T01:53:49;7.50;;;3.72;;
30458;SDS011;17254;50.976;7.034;2022-10-16T01:54:09;6.78;;;3.97;;
30458;SDS011;17254;50.976;7.034;2022-10-16T01:54:27;7.47;;;3.90;;
30458;SDS011;17254;50.976;7.034;2022-10-16T01:54:45;6.80;;;3.85;;
30458;SDS011;17254;50.976;7.034;2022-10-16T01:55:06;7.78;;;4.05;;
30458;SDS011;17254;50.976;7.034;2022-10-16T01:55:27;7.32;;;3.90;;
30458;SDS011;17254;50.976;7.034;2022-10-16T01:55:46;5.60;;;3.85;;
30458;SDS011;17254;50.976;7.034;2022-10-16T01:56:05;5.40;;;3.72;;
30458;SDS011;17254;50.976;7.034;2022-10-16T01:56:23;5.82;;;3.67;;
30458;SDS011;17254;50.976;7.034;2022-10-16T01:56:40;6.60;;;3.60;;
30458;SDS011;17254;50.976;7.034;2022-10-16T01:56:58;6.85;;;3.70;;
30458;SDS011;17254;50.976;7.034;2022-10-16T01:57:15;8.20;;;3.60;;
30458;SDS011;17254;50.976;7.034;2022-10-16T01:57:36;7.45;;;3.55;;
30458;SDS011;17254;50.976;7.034;2022-10-16T01:57:55;5.75;;;4.05;;
30458;SDS011;17254;50.976;7.034;2022-10-16T01:58:13;8.43;;;4.07;;
30458;SDS011;17254;50.976;7.034;2022-10-16T01:58:31;7.20;;;3.55;;
30458;SDS011;17254;50.976;7.034;2022-10-16T01:58:51;8.70;;;3.83;;
30458;SDS011;17254;50.976;7.034;2022-10-16T01:59:11;9.13;;;3.63;;
30458;SDS011;17254;50.976;7.034;2022-10-16T01:59:31;7.10;;;3.80;;
30458;SDS011;17254;50.976;7.034;2022-10-16T01:59:50;6.07;;;3.53;;
30458;SDS011;17254;50.976;7.034;2022-10-16T02:00:11;7.25;;;3.63;;
30458;SDS011;17254;50.976;7.034;2022-10-16T02:00:29;7.18;;;3.50;;
30458;SDS011;17254;50.976;7.034;2022-10-16T02:00:45;9.60;;;3.67;;
30458;SDS011;17254;50.976;7.034;2022-10-16T02:01:03;6.88;;;3.70;;
30458;SDS011;17254;50.976;7.034;2022-10-16T02:01:23;9.15;;;3.65;;
30458;SDS011;17254;50.976;7.034;2022-10-16T02:01:42;8.63;;;3.92;;
30458;SDS011;17254;50.976;7.034;2022-10-16T02:02:06;10.00;;;3.78;;
30458;SDS011;17254;50.976;7.034;2022-10-16T02:02:24;6.47;;;3.70;;
30458;SDS011;17254;50.976;7.034;2022-10-16T02:02:44;6.57;;;3.58;;
30458;SDS011;17254;50.976;7.034;2022-10-16T02:03:04;6.32;;;3.45;;
30458;SDS011;17254;50.976;7.034;2022-10-16T02:03:21;7.63;;;3.60;;
30458;SDS011;17254;50.976;7.034;2022-10-16T02:03:38;7.35;;;3.83;;
30458;SDS011;17254;50.976;7.034;2022-10-16T02:03:58;7.60;;;4.07;;
30458;SDS011;17254;50.976;7.034;2022-10-16T02:04:19;8.77;;;4.35;;
30458;SDS011;17254;50.976;7.034;2022-10-16T02:04:39;8.63;;;3.65;;
30458;SDS011;17254;50.976;7.034;2022-10-16T02:05:02;10.18;;;3.25;;
30458;SDS011;17254;50.976;7.034;2022-10-16T02:05:25;5.50;;;3.58;;
30458;SDS011;17254;50.976;7.034;2022-10-16T02:05:46;6.53;;;3.53;;
30458;SDS011;17254;50.976;7.034;2022-10-16T02:06:06;9.02;;;3.92;;
30458;SDS011;17254;50.976;7.034;2022-10-16T02:06:22;7.38;;;3.45;;
30458;SDS011;17254;50.976;7.034;2022-10-16T02:06:38;10.55;;;3.72;;
30458;SDS011;17254;50.976;7.034;2022-10-16T02:06:55;8.57;;;3.92;;
30458;SDS011;17254;50.976;7.034;2022-10-16T02:07:11;6.28;;;3.67;;
30458;SDS011;17254;50.976;7.034;2022-10-16T02:07:28;7.03;;;3.50;;
30458;SDS011;17254;50.976;7.034;2022-10-16T02:07:43;6.35;;;3.60;;
30458;SDS011;17254;50.976;7.034;2022-10-16T02:07:59;6.30;;;3.65;;
30458;SDS011;17254;50.976;7.034;2022-10-16T02:08:15;8.35;;;4.03;;
30458;SDS011;17254;50.976;7.034;2022-10-16T02:08:31;8.80;;;3.97;;
30458;SDS011;17254;50.976;7.034;2022-10-16T02:08:49;5.63;;;3.85;;
30458;SDS011;17254;50.976;7.034;2022-10-16T02:09:05;5.85;;;4.00;;
30458;SDS011;17254;50.976;7.034;2022-10-16T02:09:21;7.50;;;4.15;;
30458;SDS011;17254;50.976;7.034;2022-10-16T02:09:37;7.55;;;4.40;;
30458;SDS011;17254;50.976;7.034;2022-10-16T02:09:54;5.95;;;4.03;;
30458;SDS011;17254;50.976;7.034;2022-10-16T02:10:10;7.85;;;3.97;;
30458;SDS011;17254;50.976;7.034;2022-10-16T02:10:26;8.60;;;3.95;;
30458;SDS011;17254;50.976;7.034;2022-10-16T02:10:46;7.78;;;3.92;;
30458;SDS011;17254;50.976;7.034;2022-10-16T02:11:02;5.60;;;3.45;;
30458;SDS011;17254;50.976;7.034;2022-10-16T02:11:18;5.35;;;3.58;;
30458;SDS011;17254;50.976;7.034;2022-10-16T02:11:34;10.82;;;4.15;;
30458;SDS011;17254;50.976;7.034;2022-10-16T02:11:50;10.02;;;4.03;;
30458;SDS011;17254;50.976;7.034;2022-10-16T02:12:12;5.85;;;3.33;;
30458;SDS011;17254;50.976;7.034;2022-10-16T02:12:31;7.35;;;3.28;;
30458;SDS011;17254;50.976;7.034;2022-10-16T02:12:53;8.15;;;3.53;;
30458;SDS011;17254;50.976;7.034;2022-10-16T02:13:14;7.40;;;3.90;;
30458;SDS011;17254;50.976;7.034;2022-10-16T02:13:37;7.78;;;3.60;;
30458;SDS011;17254;50.976;7.034;2022-10-16T02:13:57;11.60;;;3.92;;
30458;SDS011;17254;50.976;7.034;2022-10-16T02:14:16;9.40;;;4.07;;
30458;SDS011;17254;50.976;7.034;2022-10-16T02:14:33;6.57;;;3.85;;
30458;SDS011;17254;50.976;7.034;2022-10-16T02:14:52;6.95;;;3.70;;
30458;SDS011;17254;50.976;7.034;2022-10-16T02:15:08;6.50;;;3.60;;
30458;SDS011;17254;50.976;7.034;2022-10-16T02:15:25;8.88;;;3.70;;
30458;SDS011;17254;50.976;7.034;2022-10-16T02:15:41;9.70;;;4.05;;
30458;SDS011;17254;50.976;7.034;2022-10-16T02:15:57;7.27;;;3.90;;
30458;SDS011;17254;50.976;7.034;2022-10-16T02:16:13;6.28;;;3.83;;
30458;SDS011;17254;50.976;7.034;2022-10-16T02:16:33;6.22;;;3.72;;
30458;SDS011;17254;50.976;7.034;2022-10-16T02:16:50;8.88;;;3.22;;
30458;SDS011;17254;50.976;7.034;2022-10-16T02:17:11;8.38;;;3.67;;
30458;SDS011;17254;50.976;7.034;2022-10-16T02:17:28;8.98;;;3.63;;
30458;SDS011;17254;50.976;7.034;2022-10-16T02:17:44;4.85;;;3.03;;
30458;SDS011;17254;50.976;7.034;2022-10-16T02:18:01;5.00;;;3.25;;
30458;SDS011;17254;50.976;7.034;2022-10-16T02:18:17;7.85;;;3.22;;